sensor_id;sensor_type;location;lat;lon;timestamp;P1;durP1;ratioP1;P2;durP2;ratioP2
66256;SDS011;53049;43.446;3.698;2023-04-15T00:01:44;7.90;;;2.90;;
66256;SDS011;53049;43.446;3.698;2023-04-15T00:04:10;6.35;;;2.40;;
66256;SDS011;53049;43.446;3.698;2023-04-15T00:06:36;8.23;;;2.28;;
66256;SDS011;53049;43.446;3.698;2023-04-15T00:09:03;8.35;;;3.08;;
66256;SDS011;53049;43.446;3.698;2023-04-15T00:11:30;6.30;;;2.80;;
66256;SDS011;53049;43.446;3.698;2023-04-15T00:13:56;7.15;;;2.53;;
66256;SDS011;53049;43.446;3.698;2023-04-15T00:16:22;7.25;;;2.10;;
66256;SDS011;53049;43.446;3.698;2023-04-15T00:18:48;4.78;;;1.80;;
66256;SDS011;53049;43.446;3.698;2023-04-15T00:21:14;5.60;;;1.75;;
66256;SDS011;53049;43.446;3.698;2023-04-15T00:23:41;4.28;;;1.70;;
66256;SDS011;53049;43.446;3.698;2023-04-15T00:26:08;6.78;;;1.70;;
66256;SDS011;53049;43.446;3.698;2023-04-15T00:28:34;4.75;;;1.58;;
66256;SDS011;53049;43.446;3.698;2023-04-15T00:31:00;5.28;;;1.60;;
66256;SDS011;53049;43.446;3.698;2023-04-15T00:33:26;4.65;;;1.67;;
66256;SDS011;53049;43.446;3.698;2023-04-15T00:35:52;6.22;;;2.00;;
66256;SDS011;53049;43.446;3.698;2023-04-15T00:38:18;3.50;;;1.45;;
66256;SDS011;53049;43.446;3.698;2023-04-15T00:40:44;7.90;;;1.92;;
66256;SDS011;53049;43.446;3.698;2023-04-15T00:43:10;5.25;;;1.65;;
66256;SDS011;53049;43.446;3.698;2023-04-15T00:45:36;4.95;;;1.67;;
66256;SDS011;53049;43.446;3.698;2023-04-15T00:48:03;2.83;;;1.38;;
66256;SDS011;53049;43.446;3.698;2023-04-15T00:50:30;4.63;;;1.83;;
66256;SDS011;53049;43.446;3.698;2023-04-15T00:52:56;5.82;;;1.55;;
66256;SDS011;53049;43.446;3.698;2023-04-15T00:55:22;6.30;;;1.70;;
66256;SDS011;53049;43.446;3.698;2023-04-15T00:57:48;4.85;;;1.50;;
66256;SDS011;53049;43.446;3.698;2023-04-15T01:00:15;4.00;;;1.88;;
66256;SDS011;53049;43.446;3.698;2023-04-15T01:02:42;5.20;;;1.52;;
66256;SDS011;53049;43.446;3.698;2023-04-15T01:05:08;5.10;;;1.63;;
66256;SDS011;53049;43.446;3.698;2023-04-15T01:07:34;7.07;;;1.70;;
66256;SDS011;53049;43.446;3.698;2023-04-15T01:10:01;5.72;;;1.80;;
66256;SDS011;53049;43.446;3.698;2023-04-15T01:12:27;4.00;;;1.52;;
66256;SDS011;53049;43.446;3.698;2023-04-15T01:14:54;5.45;;;1.63;;
66256;SDS011;53049;43.446;3.698;2023-04-15T01:17:20;3.55;;;1.70;;
66256;SDS011;53049;43.446;3.698;2023-04-15T01:19:46;4.65;;;1.45;;
66256;SDS011;53049;43.446;3.698;2023-04-15T01:22:13;5.53;;;1.52;;
66256;SDS011;53049;43.446;3.698;2023-04-15T01:24:39;4.20;;;1.30;;
66256;SDS011;53049;43.446;3.698;2023-04-15T01:27:05;2.88;;;1.27;;
66256;SDS011;53049;43.446;3.698;2023-04-15T01:29:32;3.42;;;1.70;;
66256;SDS011;53049;43.446;3.698;2023-04-15T01:31:58;3.72;;;1.30;;
66256;SDS011;53049;43.446;3.698;2023-04-15T01:34:24;4.03;;;1.30;;
66256;SDS011;53049;43.446;3.698;2023-04-15T01:36:50;3.78;;;1.50;;
66256;SDS011;53049;43.446;3.698;2023-04-15T01:39:16;4.80;;;1.48;;
66256;SDS011;53049;43.446;3.698;2023-04-15T01:41:43;3.95;;;1.20;;
66256;SDS011;53049;43.446;3.698;2023-04-15T01:44:09;3.65;;;1.40;;
66256;SDS011;53049;43.446;3.698;2023-04-15T01:46:35;4.15;;;1.52;;
66256;SDS011;53049;43.446;3.698;2023-04-15T01:49:02;4.63;;;1.65;;
66256;SDS011;53049;43.446;3.698;2023-04-15T01:51:28;3.00;;;1.23;;
66256;SDS011;53049;43.446;3.698;2023-04-15T01:53:54;2.67;;;1.30;;
66256;SDS011;53049;43.446;3.698;2023-04-15T01:56:23;3.35;;;1.23;;
66256;SDS011;53049;43.446;3.698;2023-04-15T01:58:49;3.95;;;1.20;;
66256;SDS011;53049;43.446;3.698;2023-04-15T02:01:15;4.72;;;1.40;;
66256;SDS011;53049;43.446;3.698;2023-04-15T02:03:43;2.15;;;1.15;;
66256;SDS011;53049;43.446;3.698;2023-04-15T02:06:10;2.72;;;1.10;;
66256;SDS011;53049;43.446;3.698;2023-04-15T02:08:36;4.10;;;1.10;;
66256;SDS011;53049;43.446;3.698;2023-04-15T02:11:03;2.38;;;1.05;;
66256;SDS011;53049;43.446;3.698;2023-04-15T02:13:29;9.80;;;1.85;;
66256;SDS011;53049;43.446;3.698;2023-04-15T02:15:55;7.22;;;1.95;;
66256;SDS011;53049;43.446;3.698;2023-04-15T02:18:21;6.65;;;1.63;;
66256;SDS011;53049;43.446;3.698;2023-04-15T02:20:47;5.47;;;1.70;;
66256;SDS011;53049;43.446;3.698;2023-04-15T02:23:13;4.43;;;1.58;;
66256;SDS011;53049;43.446;3.698;2023-04-15T02:25:39;7.40;;;1.67;;
66256;SDS011;53049;43.446;3.698;2023-04-15T02:28:06;7.00;;;1.73;;
66256;SDS011;53049;43.446;3.698;2023-04-15T02:30:32;3.60;;;1.30;;
66256;SDS011;53049;43.446;3.698;2023-04-15T02:32:59;4.45;;;1.70;;
66256;SDS011;53049;43.446;3.698;2023-04-15T02:35:25;3.70;;;1.45;;
66256;SDS011;53049;43.446;3.698;2023-04-15T02:37:51;6.78;;;2.10;;
66256;SDS011;53049;43.446;3.698;2023-04-15T02:40:17;7.00;;;2.17;;
66256;SDS011;53049;43.446;3.698;2023-04-15T02:42:44;4.70;;;1.70;;
66256;SDS011;53049;43.446;3.698;2023-04-15T02:45:10;5.75;;;1.92;;
66256;SDS011;53049;43.446;3.698;2023-04-15T02:47:37;5.90;;;1.85;;
66256;SDS011;53049;43.446;3.698;2023-04-15T02:50:10;3.40;;;1.50;;
66256;SDS011;53049;43.446;3.698;2023-04-15T02:52:38;4.10;;;1.40;;
66256;SDS011;53049;43.446;3.698;2023-04-15T02:55:05;6.20;;;1.90;;
66256;SDS011;53049;43.446;3.698;2023-04-15T02:57:32;3.75;;;1.25;;
66256;SDS011;53049;43.446;3.698;2023-04-15T03:00:01;5.13;;;1.63;;
66256;SDS011;53049;43.446;3.698;2023-04-15T03:02:27;4.90;;;1.58;;
66256;SDS011;53049;43.446;3.698;2023-04-15T03:04:58;5.68;;;1.70;;
66256;SDS011;53049;43.446;3.698;2023-04-15T03:07:24;4.05;;;1.50;;
66256;SDS011;53049;43.446;3.698;2023-04-15T03:09:50;6.25;;;1.65;;
66256;SDS011;53049;43.446;3.698;2023-04-15T03:12:16;3.78;;;1.48;;
66256;SDS011;53049;43.446;3.698;2023-04-15T03:14:42;4.68;;;1.77;;
66256;SDS011;53049;43.446;3.698;2023-04-15T03:17:08;3.25;;;1.63;;
66256;SDS011;53049;43.446;3.698;2023-04-15T03:19:34;4.60;;;1.42;;
66256;SDS011;53049;43.446;3.698;2023-04-15T03:22:00;4.65;;;1.60;;
66256;SDS011;53049;43.446;3.698;2023-04-15T03:24:26;3.13;;;1.38;;
66256;SDS011;53049;43.446;3.698;2023-04-15T03:26:54;5.65;;;1.80;;
66256;SDS011;53049;43.446;3.698;2023-04-15T03:29:20;3.42;;;1.40;;
66256;SDS011;53049;43.446;3.698;2023-04-15T03:31:46;4.93;;;1.60;;
66256;SDS011;53049;43.446;3.698;2023-04-15T03:34:12;3.50;;;1.52;;
66256;SDS011;53049;43.446;3.698;2023-04-15T03:36:38;3.42;;;1.27;;
66256;SDS011;53049;43.446;3.698;2023-04-15T03:39:04;5.47;;;1.70;;
66256;SDS011;53049;43.446;3.698;2023-04-15T03:41:30;2.88;;;1.13;;
66256;SDS011;53049;43.446;3.698;2023-04-15T03:43:56;4.03;;;1.10;;
66256;SDS011;53049;43.446;3.698;2023-04-15T03:46:22;4.25;;;1.40;;
66256;SDS011;53049;43.446;3.698;2023-04-15T03:48:49;4.57;;;1.65;;
66256;SDS011;53049;43.446;3.698;2023-04-15T03:51:15;3.28;;;1.25;;
66256;SDS011;53049;43.446;3.698;2023-04-15T03:53:41;4.20;;;1.38;;
66256;SDS011;53049;43.446;3.698;2023-04-15T03:56:07;4.88;;;1.98;;
66256;SDS011;53049;43.446;3.698;2023-04-15T03:58:33;4.40;;;1.27;;
66256;SDS011;53049;43.446;3.698;2023-04-15T04:00:59;3.58;;;1.35;;
66256;SDS011;53049;43.446;3.698;2023-04-15T04:03:26;4.78;;;1.70;;
66256;SDS011;53049;43.446;3.698;2023-04-15T04:05:52;4.57;;;1.58;;
66256;SDS011;53049;43.446;3.698;2023-04-15T04:08:18;5.18;;;1.80;;
66256;SDS011;53049;43.446;3.698;2023-04-15T04:10:45;7.68;;;1.55;;
66256;SDS011;53049;43.446;3.698;2023-04-15T04:13:11;7.47;;;2.13;;
66256;SDS011;53049;43.446;3.698;2023-04-15T04:15:37;5.10;;;1.65;;
66256;SDS011;53049;43.446;3.698;2023-04-15T04:18:03;5.10;;;1.80;;
66256;SDS011;53049;43.446;3.698;2023-04-15T04:20:29;7.43;;;1.80;;
66256;SDS011;53049;43.446;3.698;2023-04-15T04:22:56;3.97;;;1.48;;
66256;SDS011;53049;43.446;3.698;2023-04-15T04:25:22;5.85;;;1.70;;
66256;SDS011;53049;43.446;3.698;2023-04-15T04:27:48;4.97;;;1.80;;
66256;SDS011;53049;43.446;3.698;2023-04-15T04:30:14;8.20;;;2.00;;
66256;SDS011;53049;43.446;3.698;2023-04-15T04:32:41;5.43;;;1.60;;
66256;SDS011;53049;43.446;3.698;2023-04-15T04:35:07;6.07;;;1.70;;
66256;SDS011;53049;43.446;3.698;2023-04-15T04:37:33;6.07;;;1.95;;
66256;SDS011;53049;43.446;3.698;2023-04-15T04:39:59;6.07;;;1.40;;
66256;SDS011;53049;43.446;3.698;2023-04-15T04:42:25;7.45;;;1.60;;
66256;SDS011;53049;43.446;3.698;2023-04-15T04:44:52;5.53;;;1.77;;
66256;SDS011;53049;43.446;3.698;2023-04-15T04:47:18;6.93;;;2.30;;
66256;SDS011;53049;43.446;3.698;2023-04-15T04:49:44;5.07;;;1.50;;
66256;SDS011;53049;43.446;3.698;2023-04-15T04:52:10;7.30;;;1.75;;
66256;SDS011;53049;43.446;3.698;2023-04-15T04:54:39;4.57;;;1.85;;
66256;SDS011;53049;43.446;3.698;2023-04-15T04:57:05;5.97;;;1.50;;
66256;SDS011;53049;43.446;3.698;2023-04-15T04:59:32;4.35;;;1.65;;
66256;SDS011;53049;43.446;3.698;2023-04-15T05:01:58;4.70;;;1.58;;
66256;SDS011;53049;43.446;3.698;2023-04-15T05:04:24;4.00;;;1.33;;
66256;SDS011;53049;43.446;3.698;2023-04-15T05:06:50;3.03;;;1.20;;
66256;SDS011;53049;43.446;3.698;2023-04-15T05:09:16;5.85;;;1.50;;
66256;SDS011;53049;43.446;3.698;2023-04-15T05:11:43;2.90;;;1.10;;
66256;SDS011;53049;43.446;3.698;2023-04-15T05:14:09;3.17;;;1.20;;
66256;SDS011;53049;43.446;3.698;2023-04-15T05:16:35;3.55;;;1.17;;
66256;SDS011;53049;43.446;3.698;2023-04-15T05:19:01;3.30;;;1.00;;
66256;SDS011;53049;43.446;3.698;2023-04-15T05:21:27;1.98;;;1.25;;
66256;SDS011;53049;43.446;3.698;2023-04-15T05:23:53;3.22;;;1.33;;
66256;SDS011;53049;43.446;3.698;2023-04-15T05:26:19;4.93;;;1.10;;
66256;SDS011;53049;43.446;3.698;2023-04-15T05:28:46;2.45;;;1.00;;
66256;SDS011;53049;43.446;3.698;2023-04-15T05:31:12;1.70;;;1.10;;
66256;SDS011;53049;43.446;3.698;2023-04-15T05:33:38;3.53;;;1.13;;
66256;SDS011;53049;43.446;3.698;2023-04-15T05:36:04;2.83;;;1.05;;
66256;SDS011;53049;43.446;3.698;2023-04-15T05:38:31;2.85;;;1.00;;
66256;SDS011;53049;43.446;3.698;2023-04-15T05:40:57;2.15;;;1.00;;
66256;SDS011;53049;43.446;3.698;2023-04-15T05:43:23;2.47;;;0.90;;
66256;SDS011;53049;43.446;3.698;2023-04-15T05:45:49;2.00;;;1.15;;
66256;SDS011;53049;43.446;3.698;2023-04-15T05:48:15;4.47;;;1.20;;
66256;SDS011;53049;43.446;3.698;2023-04-15T05:50:41;3.65;;;1.13;;
66256;SDS011;53049;43.446;3.698;2023-04-15T05:53:07;4.30;;;1.50;;
66256;SDS011;53049;43.446;3.698;2023-04-15T05:55:34;4.72;;;1.45;;
66256;SDS011;53049;43.446;3.698;2023-04-15T05:58:00;3.67;;;1.33;;
66256;SDS011;53049;43.446;3.698;2023-04-15T06:00:27;3.50;;;1.23;;
66256;SDS011;53049;43.446;3.698;2023-04-15T06:02:54;8.13;;;1.83;;
66256;SDS011;53049;43.446;3.698;2023-04-15T06:05:21;7.43;;;1.80;;
66256;SDS011;53049;43.446;3.698;2023-04-15T06:07:48;4.57;;;1.52;;
66256;SDS011;53049;43.446;3.698;2023-04-15T06:10:14;5.13;;;1.63;;
66256;SDS011;53049;43.446;3.698;2023-04-15T06:12:40;5.80;;;1.52;;
66256;SDS011;53049;43.446;3.698;2023-04-15T06:15:06;3.83;;;1.50;;
66256;SDS011;53049;43.446;3.698;2023-04-15T06:17:34;3.92;;;1.00;;
66256;SDS011;53049;43.446;3.698;2023-04-15T06:20:01;3.63;;;1.23;;
66256;SDS011;53049;43.446;3.698;2023-04-15T06:22:27;1.42;;;0.80;;
66256;SDS011;53049;43.446;3.698;2023-04-15T06:24:53;1.77;;;0.80;;
66256;SDS011;53049;43.446;3.698;2023-04-15T06:27:19;1.05;;;0.70;;
66256;SDS011;53049;43.446;3.698;2023-04-15T06:29:47;1.08;;;0.73;;
66256;SDS011;53049;43.446;3.698;2023-04-15T06:32:13;0.43;;;0.43;;
66256;SDS011;53049;43.446;3.698;2023-04-15T06:34:39;1.00;;;0.70;;
66256;SDS011;53049;43.446;3.698;2023-04-15T06:37:05;0.50;;;0.50;;
66256;SDS011;53049;43.446;3.698;2023-04-15T06:39:31;0.50;;;0.50;;
66256;SDS011;53049;43.446;3.698;2023-04-15T06:41:57;2.17;;;0.57;;
66256;SDS011;53049;43.446;3.698;2023-04-15T06:44:23;0.70;;;0.70;;
66256;SDS011;53049;43.446;3.698;2023-04-15T06:46:49;3.28;;;0.73;;
66256;SDS011;53049;43.446;3.698;2023-04-15T06:49:17;0.50;;;0.50;;
66256;SDS011;53049;43.446;3.698;2023-04-15T06:51:43;0.77;;;0.70;;
66256;SDS011;53049;43.446;3.698;2023-04-15T06:54:09;2.13;;;0.80;;
66256;SDS011;53049;43.446;3.698;2023-04-15T06:56:35;3.97;;;0.80;;
66256;SDS011;53049;43.446;3.698;2023-04-15T06:59:01;0.57;;;0.57;;
66256;SDS011;53049;43.446;3.698;2023-04-15T07:01:27;0.70;;;0.70;;
66256;SDS011;53049;43.446;3.698;2023-04-15T07:03:53;1.52;;;0.77;;
66256;SDS011;53049;43.446;3.698;2023-04-15T07:06:19;1.33;;;1.15;;
66256;SDS011;53049;43.446;3.698;2023-04-15T07:08:46;0.98;;;0.88;;
66256;SDS011;53049;43.446;3.698;2023-04-15T07:11:12;1.23;;;0.90;;
66256;SDS011;53049;43.446;3.698;2023-04-15T07:13:39;0.60;;;0.60;;
66256;SDS011;53049;43.446;3.698;2023-04-15T07:16:05;1.80;;;0.70;;
66256;SDS011;53049;43.446;3.698;2023-04-15T07:18:31;1.10;;;0.60;;
66256;SDS011;53049;43.446;3.698;2023-04-15T07:20:57;1.33;;;0.73;;
66256;SDS011;53049;43.446;3.698;2023-04-15T07:23:22;0.40;;;0.40;;
66256;SDS011;53049;43.446;3.698;2023-04-15T07:25:48;2.30;;;0.65;;
66256;SDS011;53049;43.446;3.698;2023-04-15T07:28:14;0.60;;;0.60;;
66256;SDS011;53049;43.446;3.698;2023-04-15T07:30:39;0.50;;;0.50;;
66256;SDS011;53049;43.446;3.698;2023-04-15T07:33:05;3.05;;;0.80;;
66256;SDS011;53049;43.446;3.698;2023-04-15T07:35:31;3.75;;;1.27;;
66256;SDS011;53049;43.446;3.698;2023-04-15T07:37:57;2.80;;;0.77;;
66256;SDS011;53049;43.446;3.698;2023-04-15T07:40:23;1.45;;;0.90;;
66256;SDS011;53049;43.446;3.698;2023-04-15T07:42:48;2.17;;;1.08;;
66256;SDS011;53049;43.446;3.698;2023-04-15T07:45:15;7.20;;;1.25;;
66256;SDS011;53049;43.446;3.698;2023-04-15T07:47:41;6.05;;;1.15;;
66256;SDS011;53049;43.446;3.698;2023-04-15T07:50:08;3.58;;;1.27;;
66256;SDS011;53049;43.446;3.698;2023-04-15T07:52:35;2.90;;;1.63;;
66256;SDS011;53049;43.446;3.698;2023-04-15T07:55:06;1.70;;;0.90;;
66256;SDS011;53049;43.446;3.698;2023-04-15T07:57:35;2.20;;;0.98;;
66256;SDS011;53049;43.446;3.698;2023-04-15T08:00:01;3.47;;;1.13;;
66256;SDS011;53049;43.446;3.698;2023-04-15T08:02:31;2.70;;;1.00;;
66256;SDS011;53049;43.446;3.698;2023-04-15T08:04:57;2.60;;;0.90;;
66256;SDS011;53049;43.446;3.698;2023-04-15T08:07:23;3.33;;;1.20;;
66256;SDS011;53049;43.446;3.698;2023-04-15T08:09:50;2.13;;;1.10;;
66256;SDS011;53049;43.446;3.698;2023-04-15T08:12:16;3.85;;;2.15;;
66256;SDS011;53049;43.446;3.698;2023-04-15T08:14:42;2.17;;;1.10;;
66256;SDS011;53049;43.446;3.698;2023-04-15T08:17:07;2.17;;;0.93;;
66256;SDS011;53049;43.446;3.698;2023-04-15T08:19:33;2.47;;;1.15;;
66256;SDS011;53049;43.446;3.698;2023-04-15T08:21:59;3.17;;;1.25;;
66256;SDS011;53049;43.446;3.698;2023-04-15T08:24:25;1.80;;;1.00;;
66256;SDS011;53049;43.446;3.698;2023-04-15T08:26:51;1.67;;;1.10;;
66256;SDS011;53049;43.446;3.698;2023-04-15T08:29:17;5.38;;;1.13;;
66256;SDS011;53049;43.446;3.698;2023-04-15T08:31:42;2.08;;;1.08;;
66256;SDS011;53049;43.446;3.698;2023-04-15T08:34:10;3.05;;;1.33;;
66256;SDS011;53049;43.446;3.698;2023-04-15T08:36:36;3.78;;;1.25;;
66256;SDS011;53049;43.446;3.698;2023-04-15T08:39:02;4.55;;;1.30;;
66256;SDS011;53049;43.446;3.698;2023-04-15T08:41:30;4.68;;;1.30;;
66256;SDS011;53049;43.446;3.698;2023-04-15T08:44:04;2.08;;;1.15;;
66256;SDS011;53049;43.446;3.698;2023-04-15T08:46:30;3.70;;;1.23;;
66256;SDS011;53049;43.446;3.698;2023-04-15T08:49:02;1.30;;;1.00;;
66256;SDS011;53049;43.446;3.698;2023-04-15T08:51:28;4.90;;;1.15;;
66256;SDS011;53049;43.446;3.698;2023-04-15T08:53:54;2.70;;;1.08;;
66256;SDS011;53049;43.446;3.698;2023-04-15T08:56:22;2.72;;;1.00;;
66256;SDS011;53049;43.446;3.698;2023-04-15T08:58:50;4.38;;;1.25;;
66256;SDS011;53049;43.446;3.698;2023-04-15T09:01:16;4.68;;;1.50;;
66256;SDS011;53049;43.446;3.698;2023-04-15T09:03:42;7.93;;;1.48;;
66256;SDS011;53049;43.446;3.698;2023-04-15T09:06:08;12.20;;;1.80;;
66256;SDS011;53049;43.446;3.698;2023-04-15T09:08:34;5.90;;;1.33;;
66256;SDS011;53049;43.446;3.698;2023-04-15T09:11:00;4.68;;;1.40;;
66256;SDS011;53049;43.446;3.698;2023-04-15T09:13:27;3.33;;;1.30;;
66256;SDS011;53049;43.446;3.698;2023-04-15T09:15:53;4.78;;;1.40;;
66256;SDS011;53049;43.446;3.698;2023-04-15T09:18:28;3.45;;;1.30;;
66256;SDS011;53049;43.446;3.698;2023-04-15T09:20:55;7.45;;;1.45;;
66256;SDS011;53049;43.446;3.698;2023-04-15T09:23:29;4.60;;;1.35;;
66256;SDS011;53049;43.446;3.698;2023-04-15T09:25:56;5.82;;;1.63;;
66256;SDS011;53049;43.446;3.698;2023-04-15T09:28:25;2.38;;;1.15;;
66256;SDS011;53049;43.446;3.698;2023-04-15T09:30:51;2.78;;;1.38;;
66256;SDS011;53049;43.446;3.698;2023-04-15T09:33:23;5.25;;;1.30;;
66256;SDS011;53049;43.446;3.698;2023-04-15T09:35:56;5.60;;;1.33;;
66256;SDS011;53049;43.446;3.698;2023-04-15T09:38:23;4.88;;;1.50;;
66256;SDS011;53049;43.446;3.698;2023-04-15T09:40:49;3.85;;;1.40;;
66256;SDS011;53049;43.446;3.698;2023-04-15T09:43:14;5.10;;;1.30;;
66256;SDS011;53049;43.446;3.698;2023-04-15T09:45:47;5.63;;;1.35;;
66256;SDS011;53049;43.446;3.698;2023-04-15T09:50:47;2.58;;;1.45;;
66256;SDS011;53049;43.446;3.698;2023-04-15T09:53:17;7.45;;;1.25;;
66256;SDS011;53049;43.446;3.698;2023-04-15T09:55:48;5.43;;;1.10;;
66256;SDS011;53049;43.446;3.698;2023-04-15T09:58:22;6.78;;;1.20;;
66256;SDS011;53049;43.446;3.698;2023-04-15T10:00:55;4.20;;;1.20;;
66256;SDS011;53049;43.446;3.698;2023-04-15T10:03:23;2.58;;;1.38;;
66256;SDS011;53049;43.446;3.698;2023-04-15T10:05:51;1.38;;;0.95;;
66256;SDS011;53049;43.446;3.698;2023-04-15T10:08:19;2.50;;;1.02;;
66256;SDS011;53049;43.446;3.698;2023-04-15T10:10:46;2.92;;;1.05;;
66256;SDS011;53049;43.446;3.698;2023-04-15T10:13:13;2.85;;;1.35;;
66256;SDS011;53049;43.446;3.698;2023-04-15T10:15:42;5.43;;;1.40;;
66256;SDS011;53049;43.446;3.698;2023-04-15T10:18:10;2.22;;;1.25;;
66256;SDS011;53049;43.446;3.698;2023-04-15T10:20:37;7.65;;;2.35;;
66256;SDS011;53049;43.446;3.698;2023-04-15T10:23:03;4.32;;;1.40;;
66256;SDS011;53049;43.446;3.698;2023-04-15T10:25:30;3.13;;;1.05;;
66256;SDS011;53049;43.446;3.698;2023-04-15T10:27:58;3.97;;;1.20;;
66256;SDS011;53049;43.446;3.698;2023-04-15T10:30:24;4.05;;;1.30;;
66256;SDS011;53049;43.446;3.698;2023-04-15T10:32:50;6.38;;;1.58;;
66256;SDS011;53049;43.446;3.698;2023-04-15T10:35:17;2.75;;;1.02;;
66256;SDS011;53049;43.446;3.698;2023-04-15T10:37:45;2.55;;;1.10;;
66256;SDS011;53049;43.446;3.698;2023-04-15T10:42:59;4.15;;;1.30;;
66256;SDS011;53049;43.446;3.698;2023-04-15T10:45:33;4.18;;;1.42;;
66256;SDS011;53049;43.446;3.698;2023-04-15T10:48:02;3.13;;;1.38;;
66256;SDS011;53049;43.446;3.698;2023-04-15T10:50:30;3.50;;;1.30;;
66256;SDS011;53049;43.446;3.698;2023-04-15T10:52:57;3.47;;;1.15;;
66256;SDS011;53049;43.446;3.698;2023-04-15T10:55:24;2.35;;;1.17;;
66256;SDS011;53049;43.446;3.698;2023-04-15T10:57:57;9.95;;;1.52;;
66256;SDS011;53049;43.446;3.698;2023-04-15T11:00:25;2.22;;;0.90;;
66256;SDS011;53049;43.446;3.698;2023-04-15T11:02:58;4.22;;;1.73;;
66256;SDS011;53049;43.446;3.698;2023-04-15T11:08:20;5.63;;;1.30;;
66256;SDS011;53049;43.446;3.698;2023-04-15T11:14:27;3.67;;;1.20;;
66256;SDS011;53049;43.446;3.698;2023-04-15T11:16:52;3.15;;;1.10;;
66256;SDS011;53049;43.446;3.698;2023-04-15T11:19:18;3.72;;;1.25;;
66256;SDS011;53049;43.446;3.698;2023-04-15T11:21:43;4.43;;;1.58;;
66256;SDS011;53049;43.446;3.698;2023-04-15T11:24:09;3.35;;;1.48;;
66256;SDS011;53049;43.446;3.698;2023-04-15T11:26:35;1.95;;;1.20;;
66256;SDS011;53049;43.446;3.698;2023-04-15T11:29:00;5.15;;;1.55;;
66256;SDS011;53049;43.446;3.698;2023-04-15T11:31:26;3.33;;;1.35;;
66256;SDS011;53049;43.446;3.698;2023-04-15T11:33:59;4.95;;;1.30;;
66256;SDS011;53049;43.446;3.698;2023-04-15T11:36:27;3.88;;;1.50;;
66256;SDS011;53049;43.446;3.698;2023-04-15T11:38:54;5.78;;;1.25;;
66256;SDS011;53049;43.446;3.698;2023-04-15T11:41:22;3.35;;;1.40;;
66256;SDS011;53049;43.446;3.698;2023-04-15T11:43:49;5.68;;;1.33;;
66256;SDS011;53049;43.446;3.698;2023-04-15T11:46:15;4.43;;;1.63;;
66256;SDS011;53049;43.446;3.698;2023-04-15T11:48:42;4.57;;;1.33;;
66256;SDS011;53049;43.446;3.698;2023-04-15T11:51:09;2.28;;;1.20;;
66256;SDS011;53049;43.446;3.698;2023-04-15T11:56:08;3.42;;;1.25;;
66256;SDS011;53049;43.446;3.698;2023-04-15T11:58:52;6.53;;;1.60;;
66256;SDS011;53049;43.446;3.698;2023-04-15T12:01:32;3.08;;;1.40;;
66256;SDS011;53049;43.446;3.698;2023-04-15T12:04:00;3.15;;;1.20;;
66256;SDS011;53049;43.446;3.698;2023-04-15T12:06:33;2.67;;;1.10;;
66256;SDS011;53049;43.446;3.698;2023-04-15T12:11:45;3.60;;;1.45;;
66256;SDS011;53049;43.446;3.698;2023-04-15T12:16:41;2.75;;;1.08;;
66256;SDS011;53049;43.446;3.698;2023-04-15T12:19:09;3.78;;;1.30;;
66256;SDS011;53049;43.446;3.698;2023-04-15T12:21:40;4.82;;;1.33;;
66256;SDS011;53049;43.446;3.698;2023-04-15T12:24:09;3.80;;;1.10;;
66256;SDS011;53049;43.446;3.698;2023-04-15T12:26:47;3.13;;;1.30;;
66256;SDS011;53049;43.446;3.698;2023-04-15T12:29:24;2.63;;;1.35;;
66256;SDS011;53049;43.446;3.698;2023-04-15T12:31:58;3.67;;;1.15;;
66256;SDS011;53049;43.446;3.698;2023-04-15T12:34:37;2.83;;;1.33;;
66256;SDS011;53049;43.446;3.698;2023-04-15T12:37:08;3.38;;;1.17;;
66256;SDS011;53049;43.446;3.698;2023-04-15T12:39:37;4.25;;;1.30;;
66256;SDS011;53049;43.446;3.698;2023-04-15T12:42:04;1.70;;;1.20;;
66256;SDS011;53049;43.446;3.698;2023-04-15T12:44:30;5.07;;;1.60;;
66256;SDS011;53049;43.446;3.698;2023-04-15T12:46:57;3.42;;;1.30;;
66256;SDS011;53049;43.446;3.698;2023-04-15T12:49:23;4.35;;;1.20;;
66256;SDS011;53049;43.446;3.698;2023-04-15T12:51:50;3.67;;;1.13;;
66256;SDS011;53049;43.446;3.698;2023-04-15T12:54:18;5.28;;;1.30;;
66256;SDS011;53049;43.446;3.698;2023-04-15T12:56:44;3.53;;;1.20;;
66256;SDS011;53049;43.446;3.698;2023-04-15T12:59:10;3.15;;;1.08;;
66256;SDS011;53049;43.446;3.698;2023-04-15T13:01:37;4.78;;;1.55;;
66256;SDS011;53049;43.446;3.698;2023-04-15T13:04:03;3.03;;;1.25;;
66256;SDS011;53049;43.446;3.698;2023-04-15T13:06:28;3.05;;;1.27;;
66256;SDS011;53049;43.446;3.698;2023-04-15T13:08:56;2.17;;;1.20;;
66256;SDS011;53049;43.446;3.698;2023-04-15T13:11:23;3.05;;;1.20;;
66256;SDS011;53049;43.446;3.698;2023-04-15T13:13:49;5.97;;;1.30;;
66256;SDS011;53049;43.446;3.698;2023-04-15T13:16:16;4.93;;;1.30;;
66256;SDS011;53049;43.446;3.698;2023-04-15T13:18:43;6.22;;;1.40;;
66256;SDS011;53049;43.446;3.698;2023-04-15T13:21:10;2.40;;;1.23;;
66256;SDS011;53049;43.446;3.698;2023-04-15T13:23:36;3.70;;;1.20;;
66256;SDS011;53049;43.446;3.698;2023-04-15T13:26:02;2.80;;;1.40;;
66256;SDS011;53049;43.446;3.698;2023-04-15T13:28:28;5.13;;;1.17;;
66256;SDS011;53049;43.446;3.698;2023-04-15T13:30:53;1.88;;;1.00;;
66256;SDS011;53049;43.446;3.698;2023-04-15T13:33:19;4.75;;;1.38;;
66256;SDS011;53049;43.446;3.698;2023-04-15T13:35:45;2.92;;;1.30;;
66256;SDS011;53049;43.446;3.698;2023-04-15T13:38:11;2.58;;;1.05;;
66256;SDS011;53049;43.446;3.698;2023-04-15T13:40:36;5.75;;;1.42;;
66256;SDS011;53049;43.446;3.698;2023-04-15T13:43:02;3.53;;;1.27;;
66256;SDS011;53049;43.446;3.698;2023-04-15T13:45:28;3.88;;;1.20;;
66256;SDS011;53049;43.446;3.698;2023-04-15T13:47:55;3.22;;;1.00;;
66256;SDS011;53049;43.446;3.698;2023-04-15T13:50:21;6.47;;;1.73;;
66256;SDS011;53049;43.446;3.698;2023-04-15T13:52:47;11.95;;;1.65;;
66256;SDS011;53049;43.446;3.698;2023-04-15T13:55:12;2.83;;;1.45;;
66256;SDS011;53049;43.446;3.698;2023-04-15T13:57:38;5.20;;;1.30;;
66256;SDS011;53049;43.446;3.698;2023-04-15T14:00:04;10.75;;;2.08;;
66256;SDS011;53049;43.446;3.698;2023-04-15T14:02:30;6.18;;;1.40;;
66256;SDS011;53049;43.446;3.698;2023-04-15T14:04:56;8.55;;;1.95;;
66256;SDS011;53049;43.446;3.698;2023-04-15T14:07:22;3.17;;;1.48;;
66256;SDS011;53049;43.446;3.698;2023-04-15T14:09:47;12.70;;;1.95;;
66256;SDS011;53049;43.446;3.698;2023-04-15T14:12:13;10.00;;;1.70;;
66256;SDS011;53049;43.446;3.698;2023-04-15T14:14:39;16.15;;;2.25;;
66256;SDS011;53049;43.446;3.698;2023-04-15T14:17:05;10.32;;;1.95;;
66256;SDS011;53049;43.446;3.698;2023-04-15T14:19:31;14.60;;;2.47;;
66256;SDS011;53049;43.446;3.698;2023-04-15T14:21:57;22.75;;;2.42;;
66256;SDS011;53049;43.446;3.698;2023-04-15T14:24:23;7.65;;;2.45;;
66256;SDS011;53049;43.446;3.698;2023-04-15T14:26:49;10.52;;;1.50;;
66256;SDS011;53049;43.446;3.698;2023-04-15T14:29:14;9.55;;;2.00;;
66256;SDS011;53049;43.446;3.698;2023-04-15T14:31:40;9.20;;;2.15;;
66256;SDS011;53049;43.446;3.698;2023-04-15T14:34:08;5.38;;;1.42;;
66256;SDS011;53049;43.446;3.698;2023-04-15T14:36:34;5.63;;;1.30;;
66256;SDS011;53049;43.446;3.698;2023-04-15T14:39:00;5.55;;;1.70;;
66256;SDS011;53049;43.446;3.698;2023-04-15T14:41:28;8.05;;;1.80;;
66256;SDS011;53049;43.446;3.698;2023-04-15T14:43:54;10.73;;;1.83;;
66256;SDS011;53049;43.446;3.698;2023-04-15T14:46:20;7.03;;;1.48;;
66256;SDS011;53049;43.446;3.698;2023-04-15T14:48:49;4.93;;;2.35;;
66256;SDS011;53049;43.446;3.698;2023-04-15T14:51:15;16.50;;;1.88;;
66256;SDS011;53049;43.446;3.698;2023-04-15T14:53:41;16.85;;;2.47;;
66256;SDS011;53049;43.446;3.698;2023-04-15T14:56:07;8.35;;;1.50;;
66256;SDS011;53049;43.446;3.698;2023-04-15T14:58:32;14.52;;;1.77;;
66256;SDS011;53049;43.446;3.698;2023-04-15T15:00:58;5.78;;;1.52;;
66256;SDS011;53049;43.446;3.698;2023-04-15T15:03:25;3.67;;;1.60;;
66256;SDS011;53049;43.446;3.698;2023-04-15T15:05:51;9.55;;;1.50;;